sensor_id;sensor_type;location;lat;lon;timestamp;P1;durP1;ratioP1;P2;durP2;ratioP2
45686;SDS011;31399;51.176;7.776;2023-04-15T00:24:51;8.70;;;4.05;;
45686;SDS011;31399;51.176;7.776;2023-04-15T00:27:41;9.43;;;3.97;;
45686;SDS011;31399;51.176;7.776;2023-04-15T00:30:22;9.93;;;3.70;;
45686;SDS011;31399;51.176;7.776;2023-04-15T00:33:23;7.05;;;3.65;;
45686;SDS011;31399;51.176;7.776;2023-04-15T01:31:52;11.52;;;4.68;;
45686;SDS011;31399;51.176;7.776;2023-04-15T02:58:42;10.18;;;5.80;;
45686;SDS011;31399;51.176;7.776;2023-04-15T07:41:39;8.02;;;5.25;;
45686;SDS011;31399;51.176;7.776;2023-04-15T07:55:04;8.05;;;4.97;;
45686;SDS011;31399;51.176;7.776;2023-04-15T07:57:48;10.27;;;5.80;;
45686;SDS011;31399;51.176;7.776;2023-04-15T08:00:32;8.52;;;5.00;;
45686;SDS011;31399;51.176;7.776;2023-04-15T08:11:12;11.10;;;4.55;;
45686;SDS011;31399;51.176;7.776;2023-04-15T08:27:10;7.75;;;4.30;;
45686;SDS011;31399;51.176;7.776;2023-04-15T08:30:18;11.15;;;5.13;;
45686;SDS011;31399;51.176;7.776;2023-04-15T08:35:42;8.45;;;4.60;;
45686;SDS011;31399;51.176;7.776;2023-04-15T08:38:23;9.05;;;5.35;;
45686;SDS011;31399;51.176;7.776;2023-04-15T08:44:09;7.20;;;5.10;;
45686;SDS011;31399;51.176;7.776;2023-04-15T08:49:26;9.02;;;4.90;;
45686;SDS011;31399;51.176;7.776;2023-04-15T09:06:22;6.57;;;3.42;;
45686;SDS011;31399;51.176;7.776;2023-04-15T09:09:08;4.30;;;2.90;;
45686;SDS011;31399;51.176;7.776;2023-04-15T09:11:45;4.97;;;2.85;;
45686;SDS011;31399;51.176;7.776;2023-04-15T09:17:02;4.78;;;2.50;;
45686;SDS011;31399;51.176;7.776;2023-04-15T09:20:11;5.57;;;2.33;;
45686;SDS011;31399;51.176;7.776;2023-04-15T09:22:54;4.70;;;2.88;;
45686;SDS011;31399;51.176;7.776;2023-04-15T09:25:39;4.55;;;3.00;;
45686;SDS011;31399;51.176;7.776;2023-04-15T09:33:54;7.30;;;2.97;;
45686;SDS011;31399;51.176;7.776;2023-04-15T09:36:29;4.28;;;2.70;;
45686;SDS011;31399;51.176;7.776;2023-04-15T09:39:43;5.82;;;3.25;;
45686;SDS011;31399;51.176;7.776;2023-04-15T09:45:10;4.88;;;2.92;;
45686;SDS011;31399;51.176;7.776;2023-04-15T09:47:42;4.32;;;2.75;;
45686;SDS011;31399;51.176;7.776;2023-04-15T11:20:37;14.05;;;6.18;;
45686;SDS011;31399;51.176;7.776;2023-04-15T11:23:10;11.32;;;6.03;;
45686;SDS011;31399;51.176;7.776;2023-04-15T11:25:49;12.20;;;5.95;;
45686;SDS011;31399;51.176;7.776;2023-04-15T11:28:17;9.35;;;5.28;;
45686;SDS011;31399;51.176;7.776;2023-04-15T11:31:02;7.35;;;5.60;;
45686;SDS011;31399;51.176;7.776;2023-04-15T11:36:29;9.45;;;5.72;;
45686;SDS011;31399;51.176;7.776;2023-04-15T11:51:01;6.95;;;4.25;;
45686;SDS011;31399;51.176;7.776;2023-04-15T11:53:45;6.18;;;3.58;;
45686;SDS011;31399;51.176;7.776;2023-04-15T11:58:45;7.10;;;3.90;;
45686;SDS011;31399;51.176;7.776;2023-04-15T12:04:14;8.20;;;5.03;;
45686;SDS011;31399;51.176;7.776;2023-04-15T12:06:50;7.72;;;4.45;;
45686;SDS011;31399;51.176;7.776;2023-04-15T12:09:17;7.75;;;4.38;;
45686;SDS011;31399;51.176;7.776;2023-04-15T12:14:32;5.50;;;3.60;;
45686;SDS011;31399;51.176;7.776;2023-04-15T12:17:00;6.32;;;3.55;;
45686;SDS011;31399;51.176;7.776;2023-04-15T12:19:28;6.57;;;4.10;;
45686;SDS011;31399;51.176;7.776;2023-04-15T12:22:00;6.13;;;3.58;;
45686;SDS011;31399;51.176;7.776;2023-04-15T12:24:32;6.00;;;3.40;;
45686;SDS011;31399;51.176;7.776;2023-04-15T12:27:05;6.47;;;3.70;;
45686;SDS011;31399;51.176;7.776;2023-04-15T12:29:33;9.68;;;3.67;;
45686;SDS011;31399;51.176;7.776;2023-04-15T12:32:05;6.05;;;3.55;;
45686;SDS011;31399;51.176;7.776;2023-04-15T12:34:35;5.28;;;3.38;;
45686;SDS011;31399;51.176;7.776;2023-04-15T12:37:03;6.40;;;3.40;;
45686;SDS011;31399;51.176;7.776;2023-04-15T12:39:33;5.25;;;3.17;;
45686;SDS011;31399;51.176;7.776;2023-04-15T12:42:02;5.38;;;3.42;;
45686;SDS011;31399;51.176;7.776;2023-04-15T12:44:29;4.88;;;3.42;;
45686;SDS011;31399;51.176;7.776;2023-04-15T12:46:56;6.13;;;3.30;;
45686;SDS011;31399;51.176;7.776;2023-04-15T12:49:23;4.25;;;2.85;;
45686;SDS011;31399;51.176;7.776;2023-04-15T12:51:51;5.65;;;2.70;;
45686;SDS011;31399;51.176;7.776;2023-04-15T12:54:20;4.65;;;2.67;;
45686;SDS011;31399;51.176;7.776;2023-04-15T12:56:47;5.75;;;2.95;;
45686;SDS011;31399;51.176;7.776;2023-04-15T12:59:15;5.95;;;3.92;;
45686;SDS011;31399;51.176;7.776;2023-04-15T13:01:44;3.65;;;2.65;;
45686;SDS011;31399;51.176;7.776;2023-04-15T13:04:14;3.53;;;2.58;;
45686;SDS011;31399;51.176;7.776;2023-04-15T13:06:42;3.83;;;2.80;;
45686;SDS011;31399;51.176;7.776;2023-04-15T13:09:09;3.72;;;2.60;;
45686;SDS011;31399;51.176;7.776;2023-04-15T13:11:36;3.67;;;2.40;;
45686;SDS011;31399;51.176;7.776;2023-04-15T13:14:03;5.55;;;3.05;;
45686;SDS011;31399;51.176;7.776;2023-04-15T13:16:31;3.42;;;2.42;;
45686;SDS011;31399;51.176;7.776;2023-04-15T13:18:59;4.50;;;2.88;;
45686;SDS011;31399;51.176;7.776;2023-04-15T13:21:26;5.57;;;3.35;;
45686;SDS011;31399;51.176;7.776;2023-04-15T13:23:54;4.60;;;3.00;;
45686;SDS011;31399;51.176;7.776;2023-04-15T13:26:20;3.97;;;2.95;;
45686;SDS011;31399;51.176;7.776;2023-04-15T13:28:47;3.88;;;2.53;;
45686;SDS011;31399;51.176;7.776;2023-04-15T13:31:14;4.53;;;3.17;;
45686;SDS011;31399;51.176;7.776;2023-04-15T13:33:41;3.53;;;2.80;;
45686;SDS011;31399;51.176;7.776;2023-04-15T13:36:07;4.88;;;3.00;;
45686;SDS011;31399;51.176;7.776;2023-04-15T13:38:34;5.10;;;3.00;;
45686;SDS011;31399;51.176;7.776;2023-04-15T13:41:01;6.25;;;3.70;;
45686;SDS011;31399;51.176;7.776;2023-04-15T13:43:28;7.18;;;4.13;;
45686;SDS011;31399;51.176;7.776;2023-04-15T13:45:54;6.72;;;3.20;;
45686;SDS011;31399;51.176;7.776;2023-04-15T13:48:21;4.03;;;2.90;;
45686;SDS011;31399;51.176;7.776;2023-04-15T13:50:48;5.82;;;3.22;;
45686;SDS011;31399;51.176;7.776;2023-04-15T13:53:15;5.15;;;3.35;;
45686;SDS011;31399;51.176;7.776;2023-04-15T13:55:42;3.90;;;2.60;;
45686;SDS011;31399;51.176;7.776;2023-04-15T13:58:08;5.95;;;3.75;;
45686;SDS011;31399;51.176;7.776;2023-04-15T14:00:36;5.60;;;3.53;;
45686;SDS011;31399;51.176;7.776;2023-04-15T14:03:03;7.38;;;4.93;;
45686;SDS011;31399;51.176;7.776;2023-04-15T14:05:30;7.78;;;5.13;;
45686;SDS011;31399;51.176;7.776;2023-04-15T14:07:58;6.82;;;4.38;;
45686;SDS011;31399;51.176;7.776;2023-04-15T14:10:25;7.57;;;4.78;;
45686;SDS011;31399;51.176;7.776;2023-04-15T14:12:51;7.45;;;5.03;;
45686;SDS011;31399;51.176;7.776;2023-04-15T14:15:18;6.28;;;4.40;;
45686;SDS011;31399;51.176;7.776;2023-04-15T14:17:45;8.60;;;4.93;;
45686;SDS011;31399;51.176;7.776;2023-04-15T14:20:12;10.40;;;5.22;;
45686;SDS011;31399;51.176;7.776;2023-04-15T14:22:42;7.78;;;4.57;;
45686;SDS011;31399;51.176;7.776;2023-04-15T14:25:08;6.63;;;4.70;;
45686;SDS011;31399;51.176;7.776;2023-04-15T14:27:45;9.98;;;5.85;;
45686;SDS011;31399;51.176;7.776;2023-04-15T14:30:12;9.25;;;6.03;;
45686;SDS011;31399;51.176;7.776;2023-04-15T14:32:39;12.45;;;6.47;;
45686;SDS011;31399;51.176;7.776;2023-04-15T14:35:06;10.40;;;6.32;;
45686;SDS011;31399;51.176;7.776;2023-04-15T14:37:33;10.95;;;6.25;;
45686;SDS011;31399;51.176;7.776;2023-04-15T14:40:00;10.48;;;6.57;;
45686;SDS011;31399;51.176;7.776;2023-04-15T14:42:26;11.65;;;6.63;;
45686;SDS011;31399;51.176;7.776;2023-04-15T14:44:53;11.45;;;6.63;;
45686;SDS011;31399;51.176;7.776;2023-04-15T14:47:20;12.80;;;6.65;;
45686;SDS011;31399;51.176;7.776;2023-04-15T14:49:47;13.45;;;7.72;;
45686;SDS011;31399;51.176;7.776;2023-04-15T14:52:13;10.20;;;6.65;;
45686;SDS011;31399;51.176;7.776;2023-04-15T14:54:40;8.63;;;5.80;;
45686;SDS011;31399;51.176;7.776;2023-04-15T14:57:07;10.55;;;6.35;;
45686;SDS011;31399;51.176;7.776;2023-04-15T14:59:34;9.10;;;6.07;;
45686;SDS011;31399;51.176;7.776;2023-04-15T15:02:01;10.90;;;6.45;;
45686;SDS011;31399;51.176;7.776;2023-04-15T15:04:28;7.80;;;5.32;;
45686;SDS011;31399;51.176;7.776;2023-04-15T15:06:55;8.75;;;5.78;;
45686;SDS011;31399;51.176;7.776;2023-04-15T15:09:21;8.77;;;5.95;;
45686;SDS011;31399;51.176;7.776;2023-04-15T15:11:49;12.27;;;7.03;;
45686;SDS011;31399;51.176;7.776;2023-04-15T15:14:16;10.60;;;6.38;;
45686;SDS011;31399;51.176;7.776;2023-04-15T15:16:43;9.05;;;5.82;;
45686;SDS011;31399;51.176;7.776;2023-04-15T15:19:10;10.18;;;6.15;;
45686;SDS011;31399;51.176;7.776;2023-04-15T15:21:36;9.70;;;6.13;;
45686;SDS011;31399;51.176;7.776;2023-04-15T15:24:04;10.38;;;6.55;;
45686;SDS011;31399;51.176;7.776;2023-04-15T15:26:31;9.35;;;6.35;;
45686;SDS011;31399;51.176;7.776;2023-04-15T15:28:58;8.65;;;6.07;;
45686;SDS011;31399;51.176;7.776;2023-04-15T15:31:27;8.70;;;5.70;;
45686;SDS011;31399;51.176;7.776;2023-04-15T15:33:54;10.95;;;6.72;;
45686;SDS011;31399;51.176;7.776;2023-04-15T15:36:21;9.98;;;6.28;;
45686;SDS011;31399;51.176;7.776;2023-04-15T15:38:48;7.93;;;5.88;;
45686;SDS011;31399;51.176;7.776;2023-04-15T15:41:14;11.25;;;5.93;;
45686;SDS011;31399;51.176;7.776;2023-04-15T15:43:41;9.13;;;6.45;;
45686;SDS011;31399;51.176;7.776;2023-04-15T15:46:08;9.07;;;5.88;;
45686;SDS011;31399;51.176;7.776;2023-04-15T15:48:35;8.38;;;6.03;;
45686;SDS011;31399;51.176;7.776;2023-04-15T15:51:02;7.55;;;4.60;;
45686;SDS011;31399;51.176;7.776;2023-04-15T15:53:29;7.38;;;5.50;;
45686;SDS011;31399;51.176;7.776;2023-04-15T15:55:56;7.85;;;4.63;;
45686;SDS011;31399;51.176;7.776;2023-04-15T15:58:23;6.32;;;5.05;;
45686;SDS011;31399;51.176;7.776;2023-04-15T16:00:49;7.78;;;5.20;;
45686;SDS011;31399;51.176;7.776;2023-04-15T16:03:16;6.72;;;5.18;;
45686;SDS011;31399;51.176;7.776;2023-04-15T16:05:43;7.20;;;4.32;;
45686;SDS011;31399;51.176;7.776;2023-04-15T16:08:10;6.30;;;4.50;;
45686;SDS011;31399;51.176;7.776;2023-04-15T16:10:37;5.80;;;4.35;;
45686;SDS011;31399;51.176;7.776;2023-04-15T16:13:04;4.97;;;3.88;;
45686;SDS011;31399;51.176;7.776;2023-04-15T16:15:31;6.75;;;5.00;;
45686;SDS011;31399;51.176;7.776;2023-04-15T16:17:58;6.88;;;4.68;;
45686;SDS011;31399;51.176;7.776;2023-04-15T16:20:25;5.65;;;4.55;;
45686;SDS011;31399;51.176;7.776;2023-04-15T16:22:55;5.75;;;3.90;;
45686;SDS011;31399;51.176;7.776;2023-04-15T16:25:22;4.20;;;3.20;;
45686;SDS011;31399;51.176;7.776;2023-04-15T16:27:49;4.45;;;3.38;;
45686;SDS011;31399;51.176;7.776;2023-04-15T16:30:30;4.10;;;3.45;;
45686;SDS011;31399;51.176;7.776;2023-04-15T16:32:57;3.83;;;3.08;;
45686;SDS011;31399;51.176;7.776;2023-04-15T16:35:24;3.53;;;2.38;;
45686;SDS011;31399;51.176;7.776;2023-04-15T16:37:51;3.33;;;2.33;;
45686;SDS011;31399;51.176;7.776;2023-04-15T16:40:18;3.08;;;2.15;;
45686;SDS011;31399;51.176;7.776;2023-04-15T16:42:44;3.03;;;2.00;;
45686;SDS011;31399;51.176;7.776;2023-04-15T16:45:11;3.35;;;2.25;;
45686;SDS011;31399;51.176;7.776;2023-04-15T16:47:37;3.78;;;2.67;;
45686;SDS011;31399;51.176;7.776;2023-04-15T16:50:04;3.25;;;2.28;;
45686;SDS011;31399;51.176;7.776;2023-04-15T16:52:31;2.95;;;2.15;;
45686;SDS011;31399;51.176;7.776;2023-04-15T16:54:58;2.33;;;2.10;;
45686;SDS011;31399;51.176;7.776;2023-04-15T16:57:25;3.13;;;2.15;;
45686;SDS011;31399;51.176;7.776;2023-04-15T17:00:12;2.80;;;2.20;;
45686;SDS011;31399;51.176;7.776;2023-04-15T17:02:39;2.45;;;2.03;;
45686;SDS011;31399;51.176;7.776;2023-04-15T17:05:06;3.53;;;2.10;;
45686;SDS011;31399;51.176;7.776;2023-04-15T17:07:33;2.92;;;2.00;;
45686;SDS011;31399;51.176;7.776;2023-04-15T17:10:00;2.75;;;1.92;;
45686;SDS011;31399;51.176;7.776;2023-04-15T17:12:26;2.90;;;2.13;;
45686;SDS011;31399;51.176;7.776;2023-04-15T17:14:53;2.67;;;1.98;;
45686;SDS011;31399;51.176;7.776;2023-04-15T17:17:20;2.65;;;1.95;;
45686;SDS011;31399;51.176;7.776;2023-04-15T17:19:47;3.33;;;2.30;;
45686;SDS011;31399;51.176;7.776;2023-04-15T17:22:14;3.50;;;2.50;;
45686;SDS011;31399;51.176;7.776;2023-04-15T17:24:42;3.50;;;2.20;;
45686;SDS011;31399;51.176;7.776;2023-04-15T17:27:08;2.30;;;1.90;;
45686;SDS011;31399;51.176;7.776;2023-04-15T17:29:35;2.83;;;1.90;;
45686;SDS011;31399;51.176;7.776;2023-04-15T17:32:02;3.38;;;2.35;;
45686;SDS011;31399;51.176;7.776;2023-04-15T17:34:29;3.30;;;1.48;;
45686;SDS011;31399;51.176;7.776;2023-04-15T17:37:16;3.38;;;2.20;;
45686;SDS011;31399;51.176;7.776;2023-04-15T17:39:42;3.28;;;2.17;;
45686;SDS011;31399;51.176;7.776;2023-04-15T17:42:09;4.47;;;2.40;;
45686;SDS011;31399;51.176;7.776;2023-04-15T17:44:36;3.83;;;2.47;;
45686;SDS011;31399;51.176;7.776;2023-04-15T17:47:03;5.53;;;2.58;;
45686;SDS011;31399;51.176;7.776;2023-04-15T17:49:30;3.92;;;2.63;;
45686;SDS011;31399;51.176;7.776;2023-04-15T17:51:57;3.13;;;2.47;;
45686;SDS011;31399;51.176;7.776;2023-04-15T17:54:24;3.13;;;2.30;;
45686;SDS011;31399;51.176;7.776;2023-04-15T17:56:51;3.97;;;2.08;;
45686;SDS011;31399;51.176;7.776;2023-04-15T17:59:17;3.15;;;2.03;;
45686;SDS011;31399;51.176;7.776;2023-04-15T18:01:44;3.15;;;2.50;;
45686;SDS011;31399;51.176;7.776;2023-04-15T18:04:11;3.70;;;2.70;;
45686;SDS011;31399;51.176;7.776;2023-04-15T18:06:38;3.35;;;2.15;;
45686;SDS011;31399;51.176;7.776;2023-04-15T18:09:05;3.75;;;2.58;;
45686;SDS011;31399;51.176;7.776;2023-04-15T18:11:34;3.10;;;2.53;;
45686;SDS011;31399;51.176;7.776;2023-04-15T18:14:01;4.32;;;2.45;;
45686;SDS011;31399;51.176;7.776;2023-04-15T18:16:28;4.85;;;2.90;;
45686;SDS011;31399;51.176;7.776;2023-04-15T18:18:55;5.03;;;2.92;;
45686;SDS011;31399;51.176;7.776;2023-04-15T18:21:22;4.63;;;2.90;;
45686;SDS011;31399;51.176;7.776;2023-04-15T18:23:49;4.75;;;2.97;;
45686;SDS011;31399;51.176;7.776;2023-04-15T18:26:15;3.53;;;2.60;;
45686;SDS011;31399;51.176;7.776;2023-04-15T18:28:42;3.47;;;2.80;;
45686;SDS011;31399;51.176;7.776;2023-04-15T18:31:09;3.72;;;2.50;;
45686;SDS011;31399;51.176;7.776;2023-04-15T18:33:36;2.60;;;2.35;;
45686;SDS011;31399;51.176;7.776;2023-04-15T18:36:02;2.92;;;2.42;;
45686;SDS011;31399;51.176;7.776;2023-04-15T18:38:29;4.55;;;2.90;;
45686;SDS011;31399;51.176;7.776;2023-04-15T18:40:56;5.70;;;2.97;;
45686;SDS011;31399;51.176;7.776;2023-04-15T18:43:24;3.95;;;2.63;;
45686;SDS011;31399;51.176;7.776;2023-04-15T18:45:50;5.18;;;3.08;;
45686;SDS011;31399;51.176;7.776;2023-04-15T18:48:18;4.20;;;3.08;;
45686;SDS011;31399;51.176;7.776;2023-04-15T18:50:44;4.18;;;3.28;;
45686;SDS011;31399;51.176;7.776;2023-04-15T18:53:11;4.45;;;3.38;;
45686;SDS011;31399;51.176;7.776;2023-04-15T18:55:38;4.80;;;2.90;;
45686;SDS011;31399;51.176;7.776;2023-04-15T18:58:06;5.07;;;2.92;;
45686;SDS011;31399;51.176;7.776;2023-04-15T19:00:34;4.35;;;2.97;;
45686;SDS011;31399;51.176;7.776;2023-04-15T19:03:06;4.57;;;3.03;;
45686;SDS011;31399;51.176;7.776;2023-04-15T19:05:33;4.55;;;2.97;;
45686;SDS011;31399;51.176;7.776;2023-04-15T19:08:00;5.05;;;3.03;;
45686;SDS011;31399;51.176;7.776;2023-04-15T19:10:26;3.70;;;2.55;;
45686;SDS011;31399;51.176;7.776;2023-04-15T19:12:53;4.13;;;2.80;;
45686;SDS011;31399;51.176;7.776;2023-04-15T19:15:20;5.00;;;2.90;;
45686;SDS011;31399;51.176;7.776;2023-04-15T19:17:47;4.50;;;2.70;;
45686;SDS011;31399;51.176;7.776;2023-04-15T19:20:14;4.65;;;2.92;;
45686;SDS011;31399;51.176;7.776;2023-04-15T19:22:41;5.55;;;3.30;;
45686;SDS011;31399;51.176;7.776;2023-04-15T19:25:08;3.38;;;2.60;;
45686;SDS011;31399;51.176;7.776;2023-04-15T19:27:35;5.70;;;2.90;;
45686;SDS011;31399;51.176;7.776;2023-04-15T19:30:04;5.00;;;3.10;;
45686;SDS011;31399;51.176;7.776;2023-04-15T19:32:32;4.15;;;2.97;;
45686;SDS011;31399;51.176;7.776;2023-04-15T19:34:59;4.70;;;2.97;;
45686;SDS011;31399;51.176;7.776;2023-04-15T19:37:26;6.57;;;3.20;;
45686;SDS011;31399;51.176;7.776;2023-04-15T19:39:53;3.88;;;3.20;;
45686;SDS011;31399;51.176;7.776;2023-04-15T19:42:19;6.28;;;3.30;;
45686;SDS011;31399;51.176;7.776;2023-04-15T19:44:46;7.65;;;4.35;;
45686;SDS011;31399;51.176;7.776;2023-04-15T19:47:13;5.65;;;3.55;;
45686;SDS011;31399;51.176;7.776;2023-04-15T19:49:39;7.15;;;3.83;;
45686;SDS011;31399;51.176;7.776;2023-04-15T19:52:07;9.07;;;4.30;;
45686;SDS011;31399;51.176;7.776;2023-04-15T19:54:33;7.10;;;3.95;;
45686;SDS011;31399;51.176;7.776;2023-04-15T19:57:00;4.47;;;3.45;;
45686;SDS011;31399;51.176;7.776;2023-04-15T19:59:27;7.10;;;4.13;;
45686;SDS011;31399;51.176;7.776;2023-04-15T20:01:54;7.57;;;4.32;;
45686;SDS011;31399;51.176;7.776;2023-04-15T20:04:20;8.02;;;4.38;;
45686;SDS011;31399;51.176;7.776;2023-04-15T20:06:48;8.13;;;4.28;;
45686;SDS011;31399;51.176;7.776;2023-04-15T20:09:15;6.88;;;3.88;;
45686;SDS011;31399;51.176;7.776;2023-04-15T20:11:41;7.70;;;4.15;;
45686;SDS011;31399;51.176;7.776;2023-04-15T20:14:28;6.22;;;4.28;;
45686;SDS011;31399;51.176;7.776;2023-04-15T20:16:55;8.07;;;4.20;;
45686;SDS011;31399;51.176;7.776;2023-04-15T20:19:22;7.38;;;4.38;;
45686;SDS011;31399;51.176;7.776;2023-04-15T20:21:48;8.45;;;4.75;;
45686;SDS011;31399;51.176;7.776;2023-04-15T20:24:17;6.90;;;3.65;;
45686;SDS011;31399;51.176;7.776;2023-04-15T20:26:45;7.63;;;4.40;;
45686;SDS011;31399;51.176;7.776;2023-04-15T20:29:12;11.77;;;5.45;;
45686;SDS011;31399;51.176;7.776;2023-04-15T20:31:39;9.55;;;4.93;;
45686;SDS011;31399;51.176;7.776;2023-04-15T20:34:06;8.98;;;5.47;;
45686;SDS011;31399;51.176;7.776;2023-04-15T20:36:35;9.93;;;5.40;;
45686;SDS011;31399;51.176;7.776;2023-04-15T20:39:02;11.32;;;5.28;;
45686;SDS011;31399;51.176;7.776;2023-04-15T20:41:29;12.70;;;6.18;;
45686;SDS011;31399;51.176;7.776;2023-04-15T20:43:56;14.38;;;6.28;;
45686;SDS011;31399;51.176;7.776;2023-04-15T20:46:23;13.85;;;6.05;;
45686;SDS011;31399;51.176;7.776;2023-04-15T20:48:52;10.77;;;5.60;;
45686;SDS011;31399;51.176;7.776;2023-04-15T20:51:19;11.95;;;6.53;;
45686;SDS011;31399;51.176;7.776;2023-04-15T20:53:45;31.25;;;6.95;;
45686;SDS011;31399;51.176;7.776;2023-04-15T20:56:12;17.20;;;7.68;;
45686;SDS011;31399;51.176;7.776;2023-04-15T20:58:39;23.27;;;7.25;;
45686;SDS011;31399;51.176;7.776;2023-04-15T21:01:06;16.30;;;7.43;;
45686;SDS011;31399;51.176;7.776;2023-04-15T21:03:33;18.88;;;7.13;;
45686;SDS011;31399;51.176;7.776;2023-04-15T21:06:00;36.20;;;7.93;;
45686;SDS011;31399;51.176;7.776;2023-04-15T21:08:26;21.25;;;8.35;;
45686;SDS011;31399;51.176;7.776;2023-04-15T21:10:56;13.20;;;7.80;;
45686;SDS011;31399;51.176;7.776;2023-04-15T21:13:23;33.72;;;9.10;;
45686;SDS011;31399;51.176;7.776;2023-04-15T21:15:50;61.90;;;10.13;;
45686;SDS011;31399;51.176;7.776;2023-04-15T21:18:19;44.20;;;9.82;;
45686;SDS011;31399;51.176;7.776;2023-04-15T21:21:05;29.95;;;9.00;;
45686;SDS011;31399;51.176;7.776;2023-04-15T21:23:32;30.85;;;8.82;;
45686;SDS011;31399;51.176;7.776;2023-04-15T21:26:01;48.20;;;10.82;;
45686;SDS011;31399;51.176;7.776;2023-04-15T21:28:28;39.03;;;10.52;;
45686;SDS011;31399;51.176;7.776;2023-04-15T21:30:58;23.33;;;9.43;;
45686;SDS011;31399;51.176;7.776;2023-04-15T21:33:24;44.95;;;10.15;;
45686;SDS011;31399;51.176;7.776;2023-04-15T21:35:52;48.03;;;10.63;;
45686;SDS011;31399;51.176;7.776;2023-04-15T21:38:19;28.60;;;9.57;;
45686;SDS011;31399;51.176;7.776;2023-04-15T21:40:48;29.55;;;10.20;;
45686;SDS011;31399;51.176;7.776;2023-04-15T21:43:15;40.63;;;10.32;;
45686;SDS011;31399;51.176;7.776;2023-04-15T21:45:42;32.10;;;10.52;;
45686;SDS011;31399;51.176;7.776;2023-04-15T21:48:29;36.45;;;10.63;;
45686;SDS011;31399;51.176;7.776;2023-04-15T21:51:00;49.67;;;12.10;;
45686;SDS011;31399;51.176;7.776;2023-04-15T21:53:26;31.23;;;11.88;;
45686;SDS011;31399;51.176;7.776;2023-04-15T21:55:53;49.08;;;12.07;;
45686;SDS011;31399;51.176;7.776;2023-04-15T21:58:20;29.95;;;11.20;;
45686;SDS011;31399;51.176;7.776;2023-04-15T22:00:46;51.15;;;12.48;;
45686;SDS011;31399;51.176;7.776;2023-04-15T22:03:13;167.43;;;16.80;;
45686;SDS011;31399;51.176;7.776;2023-04-15T22:05:44;34.20;;;12.23;;
45686;SDS011;31399;51.176;7.776;2023-04-15T22:08:11;38.00;;;12.00;;
45686;SDS011;31399;51.176;7.776;2023-04-15T22:10:37;70.78;;;12.52;;
45686;SDS011;31399;51.176;7.776;2023-04-15T22:13:05;74.78;;;13.38;;
45686;SDS011;31399;51.176;7.776;2023-04-15T22:15:34;81.97;;;12.98;;
45686;SDS011;31399;51.176;7.776;2023-04-15T22:18:01;45.28;;;12.55;;
45686;SDS011;31399;51.176;7.776;2023-04-15T22:20:28;45.08;;;12.27;;
45686;SDS011;31399;51.176;7.776;2023-04-15T22:22:54;77.07;;;13.82;;
45686;SDS011;31399;51.176;7.776;2023-04-15T22:25:21;30.38;;;11.85;;
45686;SDS011;31399;51.176;7.776;2023-04-15T22:27:48;40.75;;;11.95;;
45686;SDS011;31399;51.176;7.776;2023-04-15T22:30:14;65.35;;;13.05;;
45686;SDS011;31399;51.176;7.776;2023-04-15T22:32:41;57.75;;;12.82;;
45686;SDS011;31399;51.176;7.776;2023-04-15T22:35:08;35.05;;;12.60;;
45686;SDS011;31399;51.176;7.776;2023-04-15T22:37:35;52.88;;;12.07;;
45686;SDS011;31399;51.176;7.776;2023-04-15T22:40:01;60.22;;;12.77;;
45686;SDS011;31399;51.176;7.776;2023-04-15T22:42:28;94.30;;;12.35;;
45686;SDS011;31399;51.176;7.776;2023-04-15T22:44:55;41.25;;;11.57;;
45686;SDS011;31399;51.176;7.776;2023-04-15T22:47:21;65.88;;;11.52;;
45686;SDS011;31399;51.176;7.776;2023-04-15T22:49:48;64.93;;;11.85;;
45686;SDS011;31399;51.176;7.776;2023-04-15T22:52:15;61.05;;;11.18;;
45686;SDS011;31399;51.176;7.776;2023-04-15T22:54:55;35.30;;;11.70;;
45686;SDS011;31399;51.176;7.776;2023-04-15T22:57:22;51.03;;;12.23;;
45686;SDS011;31399;51.176;7.776;2023-04-15T22:59:49;59.15;;;11.35;;
45686;SDS011;31399;51.176;7.776;2023-04-15T23:02:15;57.25;;;11.32;;
45686;SDS011;31399;51.176;7.776;2023-04-15T23:04:42;78.80;;;12.20;;
45686;SDS011;31399;51.176;7.776;2023-04-15T23:07:09;30.25;;;9.65;;
45686;SDS011;31399;51.176;7.776;2023-04-15T23:09:36;41.60;;;10.90;;
45686;SDS011;31399;51.176;7.776;2023-04-15T23:12:03;22.60;;;9.93;;
45686;SDS011;31399;51.176;7.776;2023-04-15T23:14:37;66.63;;;11.38;;
45686;SDS011;31399;51.176;7.776;2023-04-15T23:17:03;41.25;;;10.60;;
45686;SDS011;31399;51.176;7.776;2023-04-15T23:19:30;61.72;;;11.55;;
45686;SDS011;31399;51.176;7.776;2023-04-15T23:21:57;33.95;;;9.80;;
45686;SDS011;31399;51.176;7.776;2023-04-15T23:24:23;47.53;;;10.90;;
45686;SDS011;31399;51.176;7.776;2023-04-15T23:26:50;82.20;;;13.18;;
45686;SDS011;31399;51.176;7.776;2023-04-15T23:29:18;60.80;;;12.00;;
45686;SDS011;31399;51.176;7.776;2023-04-15T23:31:44;27.13;;;10.10;;
45686;SDS011;31399;51.176;7.776;2023-04-15T23:34:11;32.00;;;11.00;;
45686;SDS011;31399;51.176;7.776;2023-04-15T23:36:38;38.58;;;10.45;;
45686;SDS011;31399;51.176;7.776;2023-04-15T23:39:04;19.85;;;9.95;;
45686;SDS011;31399;51.176;7.776;2023-04-15T23:41:31;19.77;;;10.73;;
45686;SDS011;31399;51.176;7.776;2023-04-15T23:43:58;20.48;;;9.50;;
45686;SDS011;31399;51.176;7.776;2023-04-15T23:46:24;31.63;;;10.10;;
45686;SDS011;31399;51.176;7.776;2023-04-15T23:48:51;25.85;;;9.25;;
45686;SDS011;31399;51.176;7.776;2023-04-15T23:51:17;30.35;;;9.75;;
45686;SDS011;31399;51.176;7.776;2023-04-15T23:53:44;22.80;;;8.55;;
45686;SDS011;31399;51.176;7.776;2023-04-15T23:56:11;23.20;;;8.35;;
45686;SDS011;31399;51.176;7.776;2023-04-15T23:58:37;34.70;;;10.00;;
